Rogart, United Kingdom
Current Conditions -  °F | °C
As of 3:20 PM on Thursday 30 Oct 2014 (Local Time) from EGPE Reporting Station
Broken Clouds Broken Clouds  
Wind Chill:   Ceiling: 3800
Heat Index:   Visibility: 6mi
Dew Point:   Wind: 2mph
Humidity: 100%   Direction: 200°SSW
Pressure: 29.83"   Gusts: NA
Location:  57.99°N, 4.16°W
Report Text: EGPE 301520Z 20002KT 9999 FEW002 SCT028 BKN038 09/09 Q1010
Loading
Personal Weather Stations






























Interactive Weather Map
Tropical Storm Tracking
New forecast layout! Learn more

10-Day Weather Forecast

Advertisements
Track Severe Weather on mobile